Time;durP1;ratioP1;P1;durP2;ratioP2;P2;SDS_P1;SDS_P2;PMS_P1;PMS_P2;Temp;Humidity;BMP_temperature;BMP_pressure;BME280_temperature;BME280_humidity;BME280_pressure;Samples;Min_cycle;Max_cycle;Signal;HPM_P1;HPM_P2
2021/07/06 00:00:28;;;;;;;3.40;1.80;;;;;;;18.26;81.02;99993.22;680631;29;1135;-82
2021/07/06 00:00:48;;;;;;;4.10;1.90;;;;;;;18.19;81.61;99989.16;679064;28;1665;-82
2021/07/06 00:01:08;;;;;;;3.67;2.10;;;;;;;18.17;81.60;99991.88;677477;29;981;-82
2021/07/06 00:01:29;;;;;;;3.67;1.90;;;;;;;18.12;81.76;99987.72;676368;29;884;-83
2021/07/06 00:01:49;;;;;;;3.15;1.80;;;;;;;18.18;81.82;99984.81;682429;28;3900;-83
2021/07/06 00:02:10;;;;;;;2.50;1.83;;;;;;;18.35;80.87;99991.94;677956;29;1354;-82
2021/07/06 00:02:30;;;;;;;4.38;2.00;;;;;;;18.43;80.50;99981.84;676117;29;1573;-82
2021/07/06 00:02:51;;;;;;;5.10;2.10;;;;;;;18.34;80.87;99980.47;672946;29;1651;-82
2021/07/06 00:03:11;;;;;;;4.43;1.90;;;;;;;18.26;81.14;99981.78;672386;29;3555;-82
2021/07/06 00:03:32;;;;;;;4.27;2.07;;;;;;;18.20;81.73;99981.13;683609;28;2947;-83
2021/07/06 00:03:53;;;;;;;3.90;2.10;;;;;;;18.36;80.53;99976.00;664121;28;4536;-82
2021/07/06 00:04:20;;;;;;;2.95;1.75;;;;;;;18.33;80.70;99976.16;679927;28;1741;-82
2021/07/06 00:04:40;;;;;;;3.80;1.63;;;;;;;18.46;80.03;99972.91;680119;28;3793;-82
2021/07/06 00:05:00;;;;;;;3.20;1.80;;;;;;;18.41;80.11;99972.25;681990;28;3563;-82
2021/07/06 00:05:21;;;;;;;3.33;1.80;;;;;;;18.41;80.03;99972.25;677989;29;1943;-82
2021/07/06 00:05:42;;;;;;;3.08;1.80;;;;;;;18.34;80.30;99977.84;677934;29;1303;-83
2021/07/06 00:06:02;;;;;;;2.60;1.70;;;;;;;18.25;81.00;99970.38;677521;29;1593;-82
2021/07/06 00:06:23;;;;;;;3.75;1.88;;;;;;;18.17;81.41;99970.72;671841;29;1462;-82
2021/07/06 00:06:44;;;;;;;4.93;2.05;;;;;;;18.15;81.50;99969.06;677905;28;4374;-82
2021/07/06 00:07:04;;;;;;;4.60;1.97;;;;;;;18.13;81.39;99976.22;680846;28;1370;-82
2021/07/06 00:07:26;;;;;;;4.28;2.00;;;;;;;18.30;80.47;99972.78;679844;28;3287;-82
2021/07/06 00:07:47;;;;;;;2.47;1.80;;;;;;;18.46;79.74;99970.25;677274;29;4218;-83
2021/07/06 00:08:08;;;;;;;3.05;1.80;;;;;;;18.35;80.10;99971.63;677878;29;2147;-83
2021/07/06 00:08:29;;;;;;;3.30;1.98;;;;;;;18.27;80.26;99975.56;680115;29;2061;-82
2021/07/06 00:08:49;;;;;;;2.93;1.93;;;;;;;18.18;80.93;99966.31;680591;28;1376;-83
2021/07/06 00:09:09;;;;;;;3.65;1.80;;;;;;;18.30;80.70;99970.97;683943;28;1302;-82
2021/07/06 00:09:30;;;;;;;3.17;1.70;;;;;;;18.26;80.76;99966.75;683153;28;1361;-82
2021/07/06 00:09:51;;;;;;;3.33;1.80;;;;;;;18.25;80.55;99973.00;684600;28;4329;-82
2021/07/06 00:10:12;;;;;;;3.00;1.73;;;;;;;18.18;80.93;99966.31;686325;28;1354;-82
2021/07/06 00:10:35;;;;;;;2.90;1.90;;;;;;;18.12;81.41;99978.00;686377;28;3175;-83
2021/07/06 00:10:56;;;;;;;2.95;1.80;;;;;;;18.06;81.60;99966.88;687579;28;1708;-83
2021/07/06 00:11:16;;;;;;;3.00;1.75;;;;;;;17.99;81.78;99964.50;683077;28;1490;-82
2021/07/06 00:11:37;;;;;;;3.10;1.70;;;;;;;17.96;81.83;99969.09;682691;28;2769;-82
2021/07/06 00:11:57;;;;;;;4.40;1.77;;;;;;;17.92;81.59;99971.00;683997;28;1350;-82
2021/07/06 00:12:18;;;;;;;3.93;1.90;;;;;;;17.94;81.89;99963.00;680498;29;1048;-82
2021/07/06 00:12:39;;;;;;;2.72;1.70;;;;;;;17.94;81.64;99965.66;682653;28;1984;-83
2021/07/06 00:12:59;;;;;;;3.70;1.83;;;;;;;17.90;81.98;99970.19;680989;28;6567;-82
2021/07/06 00:13:20;;;;;;;3.77;1.70;;;;;;;17.88;82.05;99974.69;680913;28;1249;-82
2021/07/06 00:13:40;;;;;;;3.80;1.75;;;;;;;17.84;82.80;99983.69;681848;28;2418;-82
2021/07/06 00:14:01;;;;;;;4.50;1.83;;;;;;;17.81;82.74;99975.91;682612;28;1677;-82
2021/07/06 00:14:21;;;;;;;3.45;1.73;;;;;;;17.79;82.73;99977.75;683318;28;1678;-82
2021/07/06 00:14:42;;;;;;;2.30;1.70;;;;;;;17.77;82.76;99979.63;678120;29;1194;-82
2021/07/06 00:15:05;;;;;;;2.88;1.90;;;;;;;17.76;82.85;99977.91;675592;29;1234;-82
2021/07/06 00:15:26;;;;;;;4.00;1.90;;;;;;;17.74;82.89;99987.69;677801;29;1625;-82
2021/07/06 00:15:48;;;;;;;3.92;1.90;;;;;;;17.70;83.50;99982.53;675996;29;4408;-82
2021/07/06 00:16:09;;;;;;;4.03;1.90;;;;;;;17.68;83.42;99987.03;679630;29;1359;-82
2021/07/06 00:16:29;;;;;;;2.93;1.77;;;;;;;17.67;83.44;99990.59;680731;28;4267;-82
2021/07/06 00:16:50;;;;;;;3.72;1.90;;;;;;;17.67;83.54;99989.75;678242;29;4298;-82
2021/07/06 00:17:10;;;;;;;3.53;1.83;;;;;;;17.71;83.17;99988.69;682156;28;1179;-82
2021/07/06 00:17:34;;;;;;;4.70;2.08;;;;;;;17.82;82.11;99990.81;679443;29;1042;-82
2021/07/06 00:17:56;;;;;;;2.88;1.92;;;;;;;17.81;82.56;99983.84;678028;29;1376;-82
2021/07/06 00:18:16;;;;;;;2.85;1.80;;;;;;;17.79;82.61;99985.69;683757;28;1462;-82
2021/07/06 00:18:36;;;;;;;2.80;1.70;;;;;;;17.76;82.94;99980.53;683394;28;1049;-83
2021/07/06 00:18:57;;;;;;;2.67;1.90;;;;;;;17.75;82.87;99984.09;682286;28;4320;-82
2021/07/06 00:19:18;;;;;;;3.13;1.80;;;;;;;17.73;82.92;99993.91;680824;29;1779;-83
2021/07/06 00:19:39;;;;;;;3.80;1.70;;;;;;;17.79;82.42;99983.03;679611;28;3795;-83
2021/07/06 00:19:59;;;;;;;3.03;1.55;;;;;;;17.78;82.55;99989.28;678464;28;1409;-82
2021/07/06 00:20:22;;;;;;;4.67;1.70;;;;;;;17.76;82.80;99986.69;677576;29;1377;-83
2021/07/06 00:20:43;;;;;;;4.43;1.80;;;;;;;17.75;82.53;99989.38;672529;29;1196;-82
2021/07/06 00:21:03;;;;;;;3.78;1.70;;;;;;;17.73;82.40;99991.25;678082;29;1233;-83
2021/07/06 00:21:25;;;;;;;2.97;1.70;;;;;;;17.81;82.03;99981.19;676852;29;1032;-82
2021/07/06 00:21:45;;;;;;;3.22;1.70;;;;;;;17.78;82.02;99976.06;679880;28;4560;-83
2021/07/06 00:22:06;;;;;;;3.50;1.80;;;;;;;17.77;82.40;99979.63;681162;28;946;-82
2021/07/06 00:22:27;;;;;;;3.05;1.77;;;;;;;17.75;82.40;99978.81;681816;28;3183;-81
2021/07/06 00:22:47;;;;;;;3.00;1.90;;;;;;;17.72;82.80;99977.16;680006;28;1516;-82
2021/07/06 00:23:10;;;;;;;3.67;1.83;;;;;;;17.70;82.71;99977.25;681997;28;1721;-82
2021/07/06 00:23:31;;;;;;;2.60;1.60;;;;;;;17.69;82.56;99979.97;680631;29;1237;-82
2021/07/06 00:23:51;;;;;;;2.45;1.60;;;;;;;17.67;83.01;99981.81;680003;29;1209;-82
2021/07/06 00:24:12;;;;;;;2.72;1.70;;;;;;;17.64;83.15;99977.53;677979;29;1496;-83
2021/07/06 00:24:33;;;;;;;4.00;1.80;;;;;;;17.63;83.40;99975.81;680899;29;1404;-82
2021/07/06 00:24:53;;;;;;;3.45;1.70;;;;;;;17.62;83.45;99974.09;680463;29;4449;-82
2021/07/06 00:25:14;;;;;;;2.70;1.85;;;;;;;17.63;83.53;99975.81;677486;29;2590;-82
2021/07/06 00:25:34;;;;;;;5.13;1.90;;;;;;;17.62;83.80;99975.88;675063;29;3180;-82
2021/07/06 00:25:55;;;;;;;3.43;1.77;;;;;;;17.61;83.89;99971.50;675339;29;1347;-83
2021/07/06 00:26:17;;;;;;;3.07;1.90;;;;;;;17.75;82.40;99976.16;672096;29;1979;-82
2021/07/06 00:26:37;;;;;;;2.60;1.70;;;;;;;17.94;80.84;99976.22;677907;29;1630;-82
2021/07/06 00:26:58;;;;;;;3.45;1.70;;;;;;;17.91;80.90;99977.22;676497;29;1285;-83
2021/07/06 00:27:18;;;;;;;3.10;1.70;;;;;;;17.92;81.05;99964.88;678980;29;1332;-82
2021/07/06 00:27:39;;;;;;;2.75;1.70;;;;;;;18.04;80.70;99969.56;677993;29;1173;-82
2021/07/06 00:28:00;;;;;;;2.75;1.60;;;;;;;17.99;81.32;99967.16;672023;29;4656;-82
2021/07/06 00:28:23;;;;;;;4.10;1.80;;;;;;;17.94;81.74;99958.56;673518;29;3676;-82
2021/07/06 00:28:43;;;;;;;3.22;1.70;;;;;;;18.00;80.86;99963.59;675953;29;1471;-82
2021/07/06 00:29:04;;;;;;;3.00;1.70;;;;;;;17.97;80.77;99963.72;678799;29;1656;-83
2021/07/06 00:29:24;;;;;;;3.07;1.77;;;;;;;18.06;80.59;99959.78;679044;29;1027;-82
2021/07/06 00:29:44;;;;;;;2.90;1.70;;;;;;;18.16;80.12;99957.56;681959;28;1292;-82
2021/07/06 00:30:06;;;;;;;4.00;1.80;;;;;;;18.34;79.07;99966.41;675556;29;1198;-82
2021/07/06 00:30:26;;;;;;;4.03;1.80;;;;;;;18.56;78.11;99963.56;675200;29;1102;-82
2021/07/06 00:30:47;;;;;;;3.70;2.00;;;;;;;18.56;77.92;99963.56;671556;29;4414;-83
2021/07/06 00:31:07;;;;;;;3.60;2.00;;;;;;;18.44;79.06;99957.09;671308;29;1627;-82
2021/07/06 00:31:28;;;;;;;3.10;1.67;;;;;;;18.33;79.56;99962.91;675731;29;4090;-83
2021/07/06 00:31:48;;;;;;;2.80;1.70;;;;;;;18.23;80.11;99953.69;679977;28;1554;-82
2021/07/06 00:32:09;;;;;;;2.80;1.70;;;;;;;18.16;80.36;99946.97;680160;29;1228;-82
2021/07/06 00:32:29;;;;;;;2.67;1.70;;;;;;;18.08;80.37;99957.06;680566;29;1062;-82
2021/07/06 00:32:51;;;;;;;3.47;1.70;;;;;;;18.01;80.72;99956.50;679032;29;2458;-82
2021/07/06 00:33:11;;;;;;;4.15;1.70;;;;;;;18.01;80.65;99954.72;673872;29;1367;-82
2021/07/06 00:33:32;;;;;;;5.40;1.70;;;;;;;18.00;80.49;99958.28;675439;29;1724;-82
2021/07/06 00:33:52;;;;;;;4.25;1.70;;;;;;;17.95;81.22;99968.22;676250;29;4437;-82
2021/07/06 00:34:13;;;;;;;2.40;1.65;;;;;;;17.91;81.20;99958.72;678442;29;2926;-82
2021/07/06 00:34:33;;;;;;;4.23;1.70;;;;;;;17.88;81.72;99959.69;674249;29;2092;-82
2021/07/06 00:34:54;;;;;;;4.78;1.80;;;;;;;17.83;81.63;99961.69;674555;29;1290;-82
2021/07/06 00:35:15;;;;;;;4.00;1.60;;;;;;;17.80;81.83;99958.31;675715;29;1309;-83
2021/07/06 00:35:36;;;;;;;4.40;1.80;;;;;;;17.78;81.95;99953.13;676877;29;1435;-83
2021/07/06 00:36:01;;;;;;;2.77;1.73;;;;;;;17.75;81.99;99958.53;676546;29;1565;-83
2021/07/06 00:36:22;;;;;;;3.47;1.60;;;;;;;17.73;81.93;99954.25;679685;29;1430;-82
2021/07/06 00:36:42;;;;;;;3.97;1.80;;;;;;;17.75;81.43;99957.66;680487;28;5771;-82
2021/07/06 00:37:03;;;;;;;4.78;1.90;;;;;;;17.74;81.70;99948.91;679987;28;1417;-82
2021/07/06 00:37:23;;;;;;;4.37;1.77;;;;;;;17.72;81.86;99955.19;682195;28;3648;-82
2021/07/06 00:37:44;;;;;;;3.38;1.63;;;;;;;17.72;81.57;99953.38;683873;28;1874;-83
2021/07/06 00:38:05;;;;;;;2.50;1.60;;;;;;;17.69;81.69;99954.41;682592;28;1743;-83
2021/07/06 00:38:26;;;;;;;1.97;1.53;;;;;;;17.69;82.06;99951.75;680951;29;1168;-83
2021/07/06 00:38:46;;;;;;;2.40;1.60;;;;;;;17.67;82.24;99964.16;681258;28;1580;-82
2021/07/06 00:39:07;;;;;;;2.70;1.70;;;;;;;17.66;82.33;99954.53;682727;28;2126;-83
2021/07/06 00:39:28;;;;;;;3.15;1.70;;;;;;;17.65;82.57;99962.53;680852;29;1273;-83
2021/07/06 00:39:48;;;;;;;3.17;1.60;;;;;;;17.65;82.21;99957.22;679795;28;4542;-83
2021/07/06 00:40:09;;;;;;;2.57;1.60;;;;;;;17.72;81.60;99963.94;678131;29;2003;-82
2021/07/06 00:40:30;;;;;;;3.15;1.50;;;;;;;17.72;81.77;99955.19;679992;28;3236;-82
2021/07/06 00:40:54;;;;;;;3.83;1.70;;;;;;;17.69;81.92;99959.69;677212;29;1467;-83
2021/07/06 00:41:15;;;;;;;2.45;1.48;;;;;;;17.68;82.10;99965.91;681669;28;1534;-82
2021/07/06 00:41:37;;;;;;;3.30;1.53;;;;;;;17.68;82.26;99972.94;681449;28;1279;-82
2021/07/06 00:41:57;;;;;;;2.67;1.55;;;;;;;17.70;81.99;99964.03;680620;29;1317;-82
2021/07/06 00:42:18;;;;;;;2.53;1.60;;;;;;;17.73;81.61;99964.81;681204;29;1920;-82
2021/07/06 00:42:48;;;;;;;2.87;1.50;;;;;;;17.73;81.18;99970.13;678621;29;1210;-83
2021/07/06 00:43:11;;;;;;;4.50;1.70;;;;;;;17.76;80.89;99965.53;681735;28;5019;-83
2021/07/06 00:43:36;;;;;;;3.40;1.70;;;;;;;17.95;80.04;99957.63;678007;29;3864;-82
2021/07/06 00:43:56;;;;;;;4.20;1.70;;;;;;;18.21;78.23;99961.69;676598;29;1711;-83
2021/07/06 00:44:19;;;;;;;2.70;1.60;;;;;;;18.18;78.42;99961.00;676842;29;1499;-82
2021/07/06 00:44:40;;;;;;;3.03;1.50;;;;;;;18.14;78.81;99954.16;676091;29;1639;-83
2021/07/06 00:45:00;;;;;;;3.85;1.60;;;;;;;18.13;78.67;99958.56;677380;29;1337;-82
2021/07/06 00:45:21;;;;;;;3.50;1.65;;;;;;;18.14;78.59;99959.44;681511;29;1062;-82
2021/07/06 00:45:41;;;;;;;4.10;1.80;;;;;;;18.13;78.67;99955.91;679569;29;4371;-82
2021/07/06 00:46:02;;;;;;;3.28;1.63;;;;;;;18.21;78.50;99945.84;680690;28;4122;-82
2021/07/06 00:46:23;;;;;;;2.78;1.50;;;;;;;18.29;78.16;99948.13;680235;29;2508;-82
2021/07/06 00:46:44;;;;;;;5.17;1.70;;;;;;;18.29;78.37;99948.13;675870;29;1945;-82
2021/07/06 00:47:05;;;;;;;5.53;1.77;;;;;;;18.20;78.50;99948.56;674555;29;1289;-82
2021/07/06 00:47:34;;;;;;;3.50;1.60;;;;;;;18.11;79.16;99954.28;675790;29;1225;-82
2021/07/06 00:47:56;;;;;;;3.95;1.50;;;;;;;18.05;79.46;99947.50;682057;28;1030;-82
2021/07/06 00:48:17;;;;;;;2.90;1.60;;;;;;;18.01;79.47;99954.72;679100;29;1024;-82
2021/07/06 00:48:38;;;;;;;2.97;1.63;;;;;;;18.01;79.40;99953.84;682218;28;1130;-82
2021/07/06 00:48:58;;;;;;;3.75;1.63;;;;;;;18.06;78.99;99949.22;682940;28;4461;-82
2021/07/06 00:49:19;;;;;;;2.97;1.60;;;;;;;18.02;79.58;99948.47;682162;28;2874;-82
2021/07/06 00:49:39;;;;;;;2.40;1.50;;;;;;;17.99;79.76;99955.72;680671;29;1638;-82
2021/07/06 00:50:06;;;;;;;3.20;1.50;;;;;;;18.01;79.63;99952.09;677582;29;1434;-82
2021/07/06 00:50:28;;;;;;;2.88;1.60;;;;;;;17.99;79.59;99950.44;678324;29;1312;-82
2021/07/06 00:50:48;;;;;;;2.95;1.52;;;;;;;17.94;79.67;99947.97;678247;29;1502;-82
2021/07/06 00:51:09;;;;;;;3.00;1.50;;;;;;;17.95;79.57;99960.28;676146;29;1553;-82
2021/07/06 00:51:29;;;;;;;3.13;1.52;;;;;;;18.01;78.85;99949.44;677000;29;1391;-82
2021/07/06 00:51:50;;;;;;;3.83;1.63;;;;;;;17.98;79.02;99951.34;677474;29;4530;-82
2021/07/06 00:52:10;;;;;;;3.45;1.60;;;;;;;17.94;79.56;99963.84;677504;29;3497;-82
2021/07/06 00:52:30;;;;;;;2.87;1.60;;;;;;;17.89;80.26;99955.25;679686;29;931;-83
2021/07/06 00:52:52;;;;;;;3.30;1.65;;;;;;;17.87;80.40;99958.00;677708;29;2996;-82
2021/07/06 00:53:12;;;;;;;2.92;1.58;;;;;;;17.83;80.46;99955.53;678403;29;1187;-82
2021/07/06 00:53:32;;;;;;;2.35;1.40;;;;;;;17.81;80.76;99949.47;683425;28;1604;-82
2021/07/06 00:53:53;;;;;;;2.60;1.50;;;;;;;17.78;80.92;99946.97;683165;28;1339;-82
2021/07/06 00:54:14;;;;;;;2.50;1.60;;;;;;;17.73;81.06;99943.69;683771;28;1197;-82
2021/07/06 00:54:34;;;;;;;2.83;1.50;;;;;;;17.70;81.07;99949.97;684305;28;900;-81
2021/07/06 00:54:55;;;;;;;3.78;1.50;;;;;;;17.70;81.60;99949.97;683780;28;4502;-82
2021/07/06 00:55:16;;;;;;;4.40;1.70;;;;;;;17.69;81.81;99957.03;676602;29;3845;-82
2021/07/06 00:55:36;;;;;;;4.63;1.70;;;;;;;17.67;81.80;99942.19;673392;29;1796;-81
2021/07/06 00:55:58;;;;;;;3.75;1.60;;;;;;;17.68;81.57;99944.75;676797;29;1417;-82
2021/07/06 00:56:20;;;;;;;4.03;1.70;;;;;;;17.73;80.84;99943.69;678404;29;1700;-81
2021/07/06 00:56:40;;;;;;;3.47;1.60;;;;;;;17.82;80.43;99943.22;678606;29;1346;-82
2021/07/06 00:57:03;;;;;;;4.10;1.70;;;;;;;17.80;81.04;99955.69;682758;28;1267;-82
2021/07/06 00:57:30;;;;;;;4.53;1.65;;;;;;;17.80;81.41;99939.81;679332;29;1383;-81
2021/07/06 00:57:50;;;;;;;3.33;1.55;;;;;;;17.86;80.96;99944.81;677013;29;4391;-82
2021/07/06 00:58:14;;;;;;;4.03;1.67;;;;;;;17.92;80.37;99944.56;678597;29;3887;-81
2021/07/06 00:58:36;;;;;;;3.10;1.60;;;;;;;17.87;80.34;99942.13;678658;29;1756;-82
2021/07/06 00:58:56;;;;;;;2.33;1.40;;;;;;;17.85;80.02;99943.13;679891;28;1825;-82
2021/07/06 00:59:19;;;;;;;2.63;1.50;;;;;;;17.81;80.26;99937.09;676332;29;1576;-82
2021/07/06 00:59:40;;;;;;;3.50;1.55;;;;;;;17.87;79.79;99944.75;676508;29;1452;-82
2021/07/06 01:00:06;;;;;;;2.70;1.40;;;;;;;17.86;79.54;99945.69;678713;29;1343;-82
2021/07/06 01:00:27;;;;;;;2.28;1.30;;;;;;;18.07;78.36;99936.84;680794;29;1537;-82
2021/07/06 01:00:48;;;;;;;2.07;1.30;;;;;;;18.01;79.01;99944.16;678174;29;4414;-82
2021/07/06 01:01:08;;;;;;;2.60;1.50;;;;;;;17.98;79.60;99938.13;678806;29;3970;-82
2021/07/06 01:01:30;;;;;;;2.30;1.50;;;;;;;17.90;80.81;99935.81;678831;28;1590;-82
2021/07/06 01:01:50;;;;;;;3.60;1.50;;;;;;;17.85;80.71;99937.81;678307;29;1735;-82
2021/07/06 01:02:11;;;;;;;2.63;1.50;;;;;;;17.82;80.66;99935.31;679211;29;1253;-82
2021/07/06 01:02:32;;;;;;;2.73;1.57;;;;;;;17.85;80.12;99932.53;678235;29;1302;-82
2021/07/06 01:02:53;;;;;;;2.33;1.55;;;;;;;17.81;80.34;99928.31;678338;29;1711;-82
2021/07/06 01:03:13;;;;;;;2.38;1.40;;;;;;;17.84;80.12;99930.81;681153;29;1388;-82
2021/07/06 01:03:34;;;;;;;2.92;1.58;;;;;;;18.14;78.28;99920.59;680962;29;1330;-81
2021/07/06 01:03:54;;;;;;;2.80;1.40;;;;;;;18.21;77.60;99929.97;677071;29;4531;-82
2021/07/06 01:04:17;;;;;;;3.33;1.60;;;;;;;18.34;77.35;99934.66;674759;29;2873;-82
2021/07/06 01:04:42;;;;;;;3.63;1.63;;;;;;;18.30;77.50;99922.50;675994;29;1869;-82
2021/07/06 01:05:06;;;;;;;2.80;1.50;;;;;;;18.21;78.40;99926.47;673665;29;1006;-82
2021/07/06 01:05:27;;;;;;;3.33;1.50;;;;;;;18.30;77.79;99923.34;674037;29;1664;-82
2021/07/06 01:05:49;;;;;;;3.20;1.57;;;;;;;18.28;77.86;99927.88;676529;29;1701;-82
2021/07/06 01:06:11;;;;;;;3.47;1.67;;;;;;;18.22;78.07;99925.53;679001;29;1249;-82
2021/07/06 01:06:32;;;;;;;2.97;1.70;;;;;;;18.36;77.74;99940.75;677647;29;1257;-81
2021/07/06 01:06:53;;;;;;;3.42;1.65;;;;;;;18.30;78.14;99927.78;675875;29;4379;-82
2021/07/06 01:07:13;;;;;;;2.58;1.50;;;;;;;18.26;78.67;99927.06;676490;29;4096;-82
2021/07/06 01:07:35;;;;;;;3.47;1.50;;;;;;;18.18;79.10;99929.28;672679;29;1095;-82
2021/07/06 01:07:55;;;;;;;2.80;1.48;;;;;;;18.11;79.35;99927.81;676353;29;1309;-82
2021/07/06 01:08:16;;;;;;;3.13;1.50;;;;;;;18.10;79.46;99926.97;675784;29;1295;-81
2021/07/06 01:08:36;;;;;;;2.50;1.50;;;;;;;18.07;79.20;99927.13;681756;29;1174;-82
2021/07/06 01:08:57;;;;;;;3.90;1.60;;;;;;;18.03;79.38;99926.41;677949;29;916;-82
2021/07/06 01:09:17;;;;;;;2.53;1.60;;;;;;;18.00;79.35;99921.28;676708;29;1584;-83
2021/07/06 01:09:38;;;;;;;2.58;1.52;;;;;;;17.94;79.34;99926.84;678394;29;1305;-82
2021/07/06 01:09:59;;;;;;;3.10;1.43;;;;;;;17.91;79.87;99926.09;676919;29;4399;-83
2021/07/06 01:10:20;;;;;;;3.10;1.50;;;;;;;17.87;79.52;99920.97;676327;29;1313;-82
2021/07/06 01:10:41;;;;;;;3.67;1.65;;;;;;;18.00;79.11;99933.66;679075;29;1556;-82
2021/07/06 01:11:02;;;;;;;5.60;1.73;;;;;;;18.30;77.89;99920.72;681476;28;1148;-82
2021/07/06 01:11:23;;;;;;;4.00;1.60;;;;;;;18.24;78.39;99922.81;678605;28;3743;-82
2021/07/06 01:11:43;;;;;;;2.93;1.53;;;;;;;18.17;78.81;99919.59;680593;28;1226;-82
2021/07/06 01:12:04;;;;;;;3.30;1.60;;;;;;;18.09;79.39;99925.25;681923;28;1009;-82
2021/07/06 01:12:25;;;;;;;2.90;1.60;;;;;;;18.03;79.45;99914.97;683236;28;1565;-82
2021/07/06 01:12:47;;;;;;;3.10;1.50;;;;;;;18.01;80.24;99917.69;679540;29;5746;-82
2021/07/06 01:13:09;;;;;;;2.40;1.40;;;;;;;18.08;79.20;99922.69;675930;29;4094;-82
2021/07/06 01:13:29;;;;;;;2.55;1.50;;;;;;;18.23;78.38;99919.31;681456;29;1176;-83
2021/07/06 01:13:49;;;;;;;2.88;1.58;;;;;;;18.17;78.50;99916.97;678338;29;1317;-82
2021/07/06 01:14:10;;;;;;;3.53;1.60;;;;;;;18.10;79.22;99915.56;681299;29;1253;-82
2021/07/06 01:14:30;;;;;;;4.70;1.67;;;;;;;18.03;79.19;99913.19;683896;28;1240;-82
2021/07/06 01:14:50;;;;;;;3.33;1.60;;;;;;;17.99;79.78;99921.34;685968;28;1287;-83
2021/07/06 01:15:16;;;;;;;3.20;1.60;;;;;;;18.13;79.29;99923.34;683561;28;1416;-82
2021/07/06 01:15:37;;;;;;;2.47;1.35;;;;;;;18.25;78.54;99914.81;680935;28;1178;-83
2021/07/06 01:15:57;;;;;;;3.33;1.38;;;;;;;18.16;79.08;99915.25;677618;29;4336;-83
2021/07/06 01:16:18;;;;;;;2.57;1.50;;;;;;;18.31;78.86;99919.78;678734;29;2094;-82
2021/07/06 01:16:38;;;;;;;4.10;1.80;;;;;;;18.25;78.43;99917.44;678619;29;1330;-82
2021/07/06 01:16:58;;;;;;;2.78;1.50;;;;;;;18.29;77.91;99910.19;679753;29;1048;-83
2021/07/06 01:17:29;;;;;;;2.23;1.40;;;;;;;18.24;77.82;99909.59;680942;29;1451;-83
2021/07/06 01:18:11;;;;;;;3.20;1.70;;;;;;;18.31;77.81;99911.84;677614;29;1365;-83
2021/07/06 01:18:31;;;;;;;2.40;1.50;;;;;;;18.20;78.43;99907.06;681102;29;1534;-82
2021/07/06 01:18:51;;;;;;;3.13;1.40;;;;;;;18.14;78.71;99919.75;682870;28;4552;-82
2021/07/06 01:19:14;;;;;;;4.33;1.57;;;;;;;18.07;79.36;99916.56;687038;28;1749;-83
2021/07/06 01:19:36;;;;;;;2.80;1.50;;;;;;;18.00;79.57;99908.03;689400;28;1745;-82
2021/07/06 01:19:59;;;;;;;2.22;1.48;;;;;;;17.95;79.76;99907.41;689009;28;1342;-83
2021/07/06 01:20:22;;;;;;;2.95;1.50;;;;;;;17.90;79.84;99904.06;683273;28;1042;-82
2021/07/06 01:20:45;;;;;;;3.30;1.60;;;;;;;17.85;80.21;99908.75;673095;29;1834;-82
2021/07/06 01:21:05;;;;;;;4.20;1.60;;;;;;;17.79;80.14;99907.25;673555;29;1023;-83
2021/07/06 01:21:26;;;;;;;4.10;1.58;;;;;;;17.77;80.55;99909.09;675155;29;1477;-83
2021/07/06 01:21:46;;;;;;;3.20;1.60;;;;;;;17.74;80.79;99903.13;676405;29;4376;-82
2021/07/06 01:22:07;;;;;;;2.90;1.70;;;;;;;17.72;80.83;99902.31;680323;28;3375;-83
2021/07/06 01:22:30;;;;;;;3.35;1.70;;;;;;;17.68;81.55;99906.88;682063;28;1640;-83
2021/07/06 01:22:51;;;;;;;2.60;1.50;;;;;;;17.65;81.50;99897.31;683240;28;1433;-83
2021/07/06 01:23:11;;;;;;;2.80;1.50;;;;;;;17.64;81.41;99900.88;678123;29;1380;-82
2021/07/06 01:23:33;;;;;;;2.47;1.50;;;;;;;17.76;81.75;99903.88;678085;29;1477;-82
2021/07/06 01:23:53;;;;;;;3.45;1.60;;;;;;;17.98;80.53;99901.97;678915;29;1309;-82
2021/07/06 01:24:13;;;;;;;3.95;1.70;;;;;;;18.01;80.37;99890.38;681733;29;1325;-82
2021/07/06 01:24:38;;;;;;;3.97;1.80;;;;;;;18.02;80.38;99900.88;681120;28;1388;-83
2021/07/06 01:25:08;;;;;;;2.90;1.73;;;;;;;18.02;80.30;99895.59;685670;28;4420;-83
2021/07/06 01:25:28;;;;;;;2.88;1.70;;;;;;;18.19;79.08;99889.50;685228;28;1347;-83
2021/07/06 01:25:52;;;;;;;3.10;1.60;;;;;;;18.34;78.09;99895.81;683565;28;1141;-83
2021/07/06 01:26:13;;;;;;;2.97;1.70;;;;;;;18.21;78.72;99892.06;682950;28;1157;-82
2021/07/06 01:26:33;;;;;;;2.78;1.70;;;;;;;18.12;79.42;99892.50;683333;28;1095;-82
2021/07/06 01:26:53;;;;;;;4.03;1.80;;;;;;;18.06;79.71;99895.47;680034;28;1362;-83
2021/07/06 01:27:14;;;;;;;3.20;1.70;;;;;;;17.97;80.30;99894.09;682280;28;1621;-82
2021/07/06 01:27:35;;;;;;;4.30;1.80;;;;;;;17.90;80.40;99888.22;686679;28;3652;-82
2021/07/06 01:27:56;;;;;;;4.15;1.67;;;;;;;17.85;80.27;99891.09;682403;28;4342;-82
2021/07/06 01:28:16;;;;;;;3.22;1.80;;;;;;;17.85;80.34;99892.88;682589;28;1653;-82
2021/07/06 01:28:39;;;;;;;3.58;1.80;;;;;;;17.82;80.52;99893.00;682623;28;1113;-83
2021/07/06 01:28:59;;;;;;;3.38;1.58;;;;;;;17.77;81.04;99898.53;678315;29;1371;-82
2021/07/06 01:29:20;;;;;;;4.18;1.60;;;;;;;17.98;79.86;99898.47;679411;28;1272;-82
2021/07/06 01:29:41;;;;;;;4.38;1.80;;;;;;;17.98;79.62;99891.38;684222;28;1380;-83
2021/07/06 01:30:04;;;;;;;3.90;1.90;;;;;;;17.92;80.25;99896.97;681586;28;1441;-83
2021/07/06 01:30:24;;;;;;;2.92;1.73;;;;;;;17.88;80.63;99890.09;681304;29;1493;-82
2021/07/06 01:30:45;;;;;;;3.90;1.70;;;;;;;17.84;80.67;99910.50;680512;28;4351;-82
2021/07/06 01:31:05;;;;;;;3.70;1.77;;;;;;;17.92;80.88;99889.03;681520;29;1479;-83
2021/07/06 01:31:26;;;;;;;3.42;1.75;;;;;;;17.92;80.35;99890.84;678638;29;1265;-82
2021/07/06 01:31:48;;;;;;;5.03;1.87;;;;;;;17.91;80.22;99897.91;681516;29;876;-83
2021/07/06 01:32:09;;;;;;;4.00;1.80;;;;;;;17.88;80.47;99884.81;678061;29;1193;-83
2021/07/06 01:32:29;;;;;;;3.93;1.70;;;;;;;18.11;78.87;99894.31;675709;29;1311;-82
2021/07/06 01:32:50;;;;;;;2.70;1.60;;;;;;;18.07;79.37;99891.88;679932;29;1984;-83
2021/07/06 01:33:19;;;;;;;2.70;1.85;;;;;;;18.03;79.33;99888.53;681905;29;968;-82
2021/07/06 01:33:39;;;;;;;3.15;1.60;;;;;;;18.02;79.56;99900.88;682892;28;5524;-82
2021/07/06 01:34:00;;;;;;;3.23;1.80;;;;;;;17.95;79.88;99895.97;678537;29;1391;-82
2021/07/06 01:34:20;;;;;;;2.17;1.53;;;;;;;17.88;80.16;99901.50;680828;28;1832;-82
2021/07/06 01:34:41;;;;;;;2.80;1.60;;;;;;;17.84;80.41;99891.16;680379;28;1702;-83
2021/07/06 01:35:01;;;;;;;3.90;1.77;;;;;;;17.79;80.59;99898.44;674244;29;980;-83
2021/07/06 01:35:22;;;;;;;3.57;1.67;;;;;;;17.78;80.73;99892.31;674151;29;1187;-82
2021/07/06 01:35:42;;;;;;;4.03;1.67;;;;;;;17.77;80.58;99892.38;676085;29;1210;-83
2021/07/06 01:36:05;;;;;;;3.78;1.60;;;;;;;17.85;80.21;99884.94;673182;29;1516;-83
2021/07/06 01:36:26;;;;;;;4.35;1.73;;;;;;;18.09;78.76;99893.53;677966;29;1634;-83
2021/07/06 01:36:46;;;;;;;3.97;1.60;;;;;;;18.16;78.77;99888.78;680362;28;4858;-82
2021/07/06 01:37:07;;;;;;;2.67;1.50;;;;;;;18.25;78.05;99891.00;678951;29;1561;-83
2021/07/06 01:37:28;;;;;;;2.40;1.60;;;;;;;18.14;79.03;99882.72;678556;29;1343;-83
2021/07/06 01:37:51;;;;;;;3.80;1.70;;;;;;;18.17;78.61;99882.56;676185;29;1207;-82
2021/07/06 01:38:11;;;;;;;5.28;1.75;;;;;;;18.34;77.55;99887.88;676528;29;1261;-82
2021/07/06 01:38:32;;;;;;;4.43;1.60;;;;;;;18.35;77.42;99889.59;673070;29;1354;-82
2021/07/06 01:38:52;;;;;;;3.30;1.70;;;;;;;18.31;77.92;99898.63;677429;29;1479;-82
2021/07/06 01:39:19;;;;;;;4.20;1.75;;;;;;;18.22;78.68;99888.50;678508;29;1557;-83
2021/07/06 01:39:40;;;;;;;4.18;1.90;;;;;;;18.12;78.89;99898.66;677144;29;4396;-82
2021/07/06 01:40:00;;;;;;;4.30;1.67;;;;;;;18.04;79.11;99895.53;680310;29;1129;-83
2021/07/06 01:40:23;;;;;;;5.38;1.60;;;;;;;18.02;79.46;99900.03;677888;29;1444;-83
2021/07/06 01:40:45;;;;;;;5.00;1.70;;;;;;;18.21;78.52;99897.38;678203;29;1623;-82
2021/07/06 01:41:05;;;;;;;3.63;1.80;;;;;;;18.20;78.51;99898.28;679358;29;1047;-82
2021/07/06 01:41:26;;;;;;;4.97;1.80;;;;;;;18.33;77.81;99893.25;676157;28;1216;-83
2021/07/06 01:41:46;;;;;;;4.43;1.70;;;;;;;18.34;77.37;99895.81;686726;28;1268;-82
2021/07/06 01:42:06;;;;;;;3.75;1.60;;;;;;;18.23;78.46;99895.50;684025;28;1215;-83
2021/07/06 01:42:27;;;;;;;3.27;1.70;;;;;;;18.16;78.74;99894.09;681819;28;3869;-83
2021/07/06 01:42:48;;;;;;;3.50;1.80;;;;;;;18.03;79.29;99889.38;680132;28;4714;-82
2021/07/06 01:43:09;;;;;;;4.05;1.85;;;;;;;17.97;79.37;99894.97;677791;29;2059;-82